createdAt,value
2023-11-08T00:01:32.182Z,8.80
2023-11-08T00:05:23.309Z,8.40
2023-11-08T00:09:11.864Z,8.90
2023-11-08T00:13:06.334Z,9.10
2023-11-08T00:16:54.848Z,9.50
2023-11-08T00:20:43.422Z,9.00
2023-11-08T00:24:24.911Z,9.30
2023-11-08T00:28:13.439Z,9.70
2023-11-08T00:32:01.933Z,8.90
2023-11-08T00:35:50.430Z,9.20
2023-11-08T00:39:39.005Z,8.20
2023-11-08T00:43:27.654Z,8.80
2023-11-08T00:47:27.170Z,9.20
2023-11-08T00:51:08.820Z,8.60
2023-11-08T00:54:49.099Z,9.00
2023-11-08T00:58:31.334Z,8.90
2023-11-08T01:02:19.837Z,8.50
2023-11-08T01:06:09.016Z,9.00
2023-11-08T01:09:50.506Z,7.70
2023-11-08T01:13:39.056Z,8.40
2023-11-08T01:17:27.573Z,8.00
2023-11-08T01:21:16.269Z,8.60
2023-11-08T01:25:02.998Z,8.30
2023-11-08T01:28:51.572Z,8.30
2023-11-08T01:32:40.135Z,8.70
2023-11-08T01:36:22.477Z,9.20
2023-11-08T01:40:11.127Z,9.70
2023-11-08T01:43:58.653Z,9.90
2023-11-08T01:47:46.551Z,11.20
2023-11-08T01:51:36.552Z,10.90
2023-11-08T01:55:18.290Z,9.70
2023-11-08T01:59:06.797Z,10.70
2023-11-08T02:02:48.144Z,11.70
2023-11-08T02:06:26.873Z,12.20
2023-11-08T02:10:15.408Z,15.40
2023-11-08T02:18:24.734Z,14.20
2023-11-08T02:22:17.051Z,15.00
2023-11-08T02:26:05.683Z,12.60
2023-11-08T02:29:54.195Z,12.90
2023-11-08T02:33:42.777Z,11.30
2023-11-08T02:37:29.493Z,10.30
2023-11-08T02:41:17.974Z,9.60
2023-11-08T02:45:06.566Z,10.50
2023-11-08T02:49:09.369Z,10.50
2023-11-08T02:53:04.106Z,10.40
2023-11-08T03:00:24.202Z,10.30
2023-11-08T03:04:12.782Z,10.80
2023-11-08T03:08:02.896Z,10.50
2023-11-08T03:11:51.428Z,9.80
2023-11-08T03:15:40.912Z,9.90
2023-11-08T03:19:28.342Z,9.70
2023-11-08T03:23:27.510Z,9.50
2023-11-08T03:27:16.052Z,9.30
2023-11-08T03:31:15.600Z,9.00
2023-11-08T03:35:04.088Z,9.20
2023-11-08T03:38:53.186Z,9.80
2023-11-08T03:42:42.263Z,9.00
2023-11-08T03:46:37.728Z,9.40
2023-11-08T03:50:19.394Z,9.70
2023-11-08T03:54:08.971Z,9.10
2023-11-08T03:57:57.592Z,9.50
2023-11-08T04:01:44.786Z,8.80
2023-11-08T04:09:07.872Z,8.30
2023-11-08T04:16:25.064Z,9.50
2023-11-08T04:20:13.812Z,9.80
2023-11-08T04:24:18.442Z,9.00
2023-11-08T04:28:05.732Z,9.10
2023-11-08T04:31:56.264Z,8.60
2023-11-08T04:35:44.873Z,8.20
2023-11-08T04:39:49.771Z,9.20
2023-11-08T04:47:10.520Z,8.70
2023-11-08T04:50:59.009Z,8.80
2023-11-08T04:54:57.775Z,9.60
2023-11-08T04:58:46.320Z,9.10
2023-11-08T05:02:38.928Z,9.50
2023-11-08T05:06:28.303Z,9.20
2023-11-08T05:10:18.173Z,9.70
2023-11-08T05:14:08.866Z,9.60
2023-11-08T05:17:49.890Z,10.00
2023-11-08T05:21:38.633Z,10.90
2023-11-08T05:25:27.172Z,19.40
2023-11-08T05:29:08.925Z,36.70
2023-11-08T05:32:58.315Z,22.00
2023-11-08T05:36:47.104Z,13.30
2023-11-08T05:40:25.038Z,12.30
2023-11-08T05:43:51.684Z,12.50
2023-11-08T05:47:47.716Z,12.90
2023-11-08T05:51:30.252Z,14.20
2023-11-08T05:55:09.890Z,13.20
2023-11-08T05:58:51.103Z,11.60
2023-11-08T06:02:39.945Z,10.60
2023-11-08T06:06:28.721Z,10.80
2023-11-08T06:10:17.617Z,12.30
2023-11-08T06:14:06.460Z,13.00
2023-11-08T06:17:54.191Z,11.00
2023-11-08T06:21:35.861Z,10.10
2023-11-08T06:25:09.899Z,8.90
2023-11-08T06:28:57.693Z,8.00
2023-11-08T06:32:46.294Z,28.10
2023-11-08T06:36:22.204Z,21.60
2023-11-08T06:40:10.810Z,20.50
2023-11-08T06:43:58.115Z,20.30
2023-11-08T06:47:32.330Z,19.70
2023-11-08T06:51:17.186Z,16.50
2023-11-08T06:55:04.364Z,15.70
2023-11-08T06:58:53.513Z,15.90
2023-11-08T07:02:30.080Z,15.10
2023-11-08T07:06:18.696Z,14.50
2023-11-08T07:10:07.297Z,14.90
2023-11-08T07:13:48.337Z,11.50
2023-11-08T07:17:36.950Z,9.90
2023-11-08T07:21:25.581Z,8.70
2023-11-08T07:25:07.776Z,8.10
2023-11-08T07:28:57.519Z,7.90
2023-11-08T07:32:49.545Z,9.50
2023-11-08T07:36:31.359Z,10.40
2023-11-08T07:40:20.620Z,11.20
2023-11-08T07:44:08.319Z,11.30
2023-11-08T07:47:57.154Z,11.00
2023-11-08T07:51:52.965Z,10.20
2023-11-08T07:55:41.581Z,10.60
2023-11-08T07:59:30.353Z,12.70
2023-11-08T08:03:12.849Z,11.00
2023-11-08T08:07:02.936Z,10.80
2023-11-08T08:10:51.633Z,10.60
2023-11-08T08:14:40.230Z,9.20
2023-11-08T08:18:30.599Z,10.00
2023-11-08T08:26:54.369Z,9.60
2023-11-08T08:30:36.230Z,9.20
2023-11-08T08:34:30.864Z,9.20
2023-11-08T08:38:13.022Z,10.40
2023-11-08T08:42:07.525Z,10.00
2023-11-08T08:45:56.135Z,9.10
2023-11-08T08:49:44.906Z,9.20
2023-11-08T08:53:35.400Z,8.80
2023-11-08T08:57:23.634Z,8.90
2023-11-08T09:01:27.621Z,9.40
2023-11-08T09:05:16.168Z,9.70
2023-11-08T09:09:05.302Z,9.90
2023-11-08T09:12:53.698Z,9.10
2023-11-08T09:16:42.290Z,9.60
2023-11-08T09:20:29.338Z,9.10
2023-11-08T09:24:16.755Z,10.10
2023-11-08T09:28:05.403Z,11.90
2023-11-08T09:31:53.983Z,10.20
2023-11-08T09:35:30.703Z,10.10
2023-11-08T09:39:20.065Z,10.60
2023-11-08T09:43:08.768Z,10.00
2023-11-08T09:46:57.592Z,9.90
2023-11-08T09:50:52.074Z,9.40
2023-11-08T09:54:40.649Z,9.80
2023-11-08T09:58:29.345Z,9.70
2023-11-08T10:02:19.590Z,10.10
2023-11-08T10:06:08.331Z,11.10
2023-11-08T10:09:56.167Z,11.00
2023-11-08T10:13:45.850Z,9.70
2023-11-08T10:19:31.248Z,10.00
2023-11-08T10:30:56.976Z,17.60
2023-11-08T10:34:57.882Z,16.90
2023-11-08T10:38:46.514Z,13.40
2023-11-08T10:47:10.865Z,12.00
2023-11-08T10:51:00.378Z,12.90
2023-11-08T10:54:49.122Z,15.20
2023-11-08T10:58:37.709Z,15.80
2023-11-08T11:02:22.536Z,15.50
2023-11-08T11:10:02.387Z,22.40
2023-11-08T11:14:06.307Z,20.30
2023-11-08T11:18:01.521Z,19.90
2023-11-08T11:21:53.032Z,15.90
2023-11-08T11:25:41.613Z,12.40
2023-11-08T11:29:48.700Z,12.30
2023-11-08T11:33:32.431Z,10.80
2023-11-08T11:37:33.192Z,9.70
2023-11-08T11:41:28.569Z,9.70
2023-11-08T11:45:26.206Z,9.10
2023-11-08T11:49:16.922Z,9.40
2023-11-08T11:53:05.621Z,10.20
2023-11-08T11:56:57.525Z,9.80
2023-11-08T12:00:44.764Z,9.80
2023-11-08T12:08:45.507Z,8.90
2023-11-08T12:13:11.751Z,9.10
2023-11-08T12:17:02.500Z,10.40
2023-11-08T12:20:53.310Z,10.60
2023-11-08T12:24:50.570Z,11.20
2023-11-08T12:28:40.010Z,10.70
2023-11-08T12:32:40.763Z,13.40
2023-11-08T12:36:29.392Z,13.00
2023-11-08T12:40:22.483Z,17.10
2023-11-08T12:44:14.219Z,23.40
2023-11-08T12:48:02.838Z,20.70
2023-11-08T12:51:51.491Z,19.20
2023-11-08T12:55:41.897Z,17.70
2023-11-08T12:59:30.481Z,17.20
2023-11-08T13:03:16.677Z,19.00
2023-11-08T13:07:05.722Z,24.10
2023-11-08T13:10:57.468Z,25.20
2023-11-08T13:14:39.138Z,23.10
2023-11-08T13:18:29.242Z,22.90
2023-11-08T13:22:19.806Z,33.70
2023-11-08T13:26:08.993Z,30.70
2023-11-08T13:29:57.825Z,27.60
2023-11-08T13:33:41.395Z,23.70
2023-11-08T13:37:33.182Z,18.50
2023-11-08T13:41:22.303Z,18.10
2023-11-08T13:45:51.778Z,15.50
2023-11-08T13:49:49.052Z,14.00
2023-11-08T13:53:27.005Z,14.10
2023-11-08T13:57:19.447Z,12.90
2023-11-08T14:01:11.908Z,13.50
2023-11-08T14:05:02.149Z,14.30
2023-11-08T14:08:43.881Z,14.10
2023-11-08T14:12:32.704Z,15.20
2023-11-08T14:16:21.602Z,15.50
2023-11-08T14:20:10.199Z,15.70
2023-11-08T14:23:51.634Z,15.20
2023-11-08T14:27:33.491Z,14.20
2023-11-08T14:31:23.152Z,14.50
2023-11-08T14:35:13.058Z,15.40
2023-11-08T14:39:02.446Z,13.60
2023-11-08T14:42:50.175Z,13.90
2023-11-08T14:46:15.802Z,12.80
2023-11-08T14:49:43.387Z,14.70
2023-11-08T14:53:23.937Z,16.30
2023-11-08T14:56:58.862Z,16.60
2023-11-08T15:00:48.646Z,15.10
2023-11-08T15:04:37.557Z,13.70
2023-11-08T15:09:49.674Z,13.80
2023-11-08T15:12:19.142Z,12.30
2023-11-08T15:16:09.794Z,11.90
2023-11-08T15:19:58.161Z,11.80
2023-11-08T15:23:45.941Z,11.80
2023-11-08T15:27:34.740Z,12.70
2023-11-08T15:31:23.753Z,11.50
2023-11-08T15:35:11.228Z,11.20
2023-11-08T15:38:38.530Z,13.20
2023-11-08T15:42:22.571Z,13.20
2023-11-08T15:46:11.351Z,12.80
2023-11-08T15:49:47.841Z,12.30
2023-11-08T15:53:36.542Z,13.00
2023-11-08T15:57:16.943Z,12.00
2023-11-08T16:01:08.282Z,12.20
2023-11-08T16:04:44.065Z,13.00
2023-11-08T16:12:51.680Z,11.40
2023-11-08T16:16:39.295Z,11.50
2023-11-08T16:20:29.958Z,12.30
2023-11-08T16:24:08.259Z,13.30
2023-11-08T16:27:53.800Z,13.20
2023-11-08T16:32:32.324Z,12.80
2023-11-08T16:35:49.781Z,15.50
2023-11-08T16:43:09.683Z,15.10
2023-11-08T16:46:58.562Z,14.60
2023-11-08T16:50:33.013Z,12.30
2023-11-08T16:54:21.984Z,12.80
2023-11-08T16:58:10.586Z,11.20
2023-11-08T17:01:55.899Z,10.50
2023-11-08T17:05:33.921Z,9.80
2023-11-08T17:09:07.671Z,10.60
2023-11-08T17:12:41.656Z,10.20
2023-11-08T17:16:35.480Z,10.10
2023-11-08T17:20:16.240Z,10.30
2023-11-08T17:23:47.160Z,9.90
2023-11-08T17:27:19.101Z,10.10
2023-11-08T17:30:48.022Z,9.80
2023-11-08T17:34:13.260Z,9.20
2023-11-08T17:38:03.649Z,9.30
2023-11-08T17:41:52.254Z,9.60
2023-11-08T17:50:01.626Z,9.00
2023-11-08T17:53:40.270Z,10.80
2023-11-08T17:56:47.303Z,11.70
2023-11-08T18:05:29.389Z,12.60
2023-11-08T18:09:10.673Z,13.90
2023-11-08T18:12:59.444Z,13.00
2023-11-08T18:16:31.210Z,11.20
2023-11-08T18:20:19.858Z,10.70
2023-11-08T18:24:08.525Z,11.40
2023-11-08T18:27:58.829Z,12.10
2023-11-08T18:31:47.585Z,13.30
2023-11-08T18:39:49.202Z,13.40
2023-11-08T18:43:38.059Z,12.30
2023-11-08T18:47:26.994Z,9.40
2023-11-08T18:51:11.408Z,10.30
2023-11-08T18:54:50.511Z,11.80
2023-11-08T18:58:42.639Z,11.20
2023-11-08T19:02:31.276Z,10.50
2023-11-08T19:06:20.693Z,11.00
2023-11-08T19:10:02.763Z,13.60
2023-11-08T19:13:50.346Z,11.00
2023-11-08T19:17:41.087Z,11.80
2023-11-08T19:21:24.690Z,10.90
2023-11-08T19:25:06.282Z,10.80
2023-11-08T19:28:27.968Z,10.60
2023-11-08T19:41:36.333Z,8.30
2023-11-08T19:45:04.124Z,8.10
2023-11-08T19:48:51.723Z,10.50
2023-11-08T19:53:02.758Z,10.90
2023-11-08T19:57:19.178Z,13.00
2023-11-08T20:01:07.931Z,10.30
2023-11-08T20:32:07.706Z,12.80
2023-11-08T21:12:56.108Z,12.00
2023-11-08T21:16:44.849Z,11.60
2023-11-08T21:25:20.504Z,11.10
2023-11-08T21:29:02.524Z,10.20
2023-11-08T21:55:00.812Z,12.20
2023-11-08T23:00:11.849Z,5.90
2023-11-08T23:03:53.289Z,7.30
2023-11-08T23:07:34.645Z,6.90
2023-11-08T23:11:23.186Z,7.30
2023-11-08T23:47:32.240Z,8.00
